Tucumcari ASC Data

Date Time Air Temperature Relative Humidity Dewpoint Heat Index Wind Speed Wind Dir. Rain Solar Radiation Soil Temperature
2m 2m 3m 3m 10cm
US/Mountain F % F F MPH deg in MJ/m^2 F
max avg avg
2020-08-01 00:05:00 70.3 53.3 52.5 70.3 5.5 9.6 6.6 202.0 209.0 0.00 0.0000000 86.5
2020-08-01 00:10:00 70.3 51.6 51.6 70.3 3.8 6.0 4.5 262.6 249.1 0.00 0.0000000 86.3
2020-08-01 00:15:00 70.6 52.5 52.3 70.6 2.6 7.4 4.8 245.0 228.6 0.00 0.0000000 86.1
2020-08-01 00:20:00 70.2 54.7 53.2 70.2 4.9 6.2 4.7 301.7 289.3 0.00 0.0000000 86.0
2020-08-01 00:25:00 69.5 56.9 53.5 69.5 3.5 5.5 4.1 287.6 293.6 0.00 0.0000000 85.9
2020-08-01 00:30:00 69.1 57.9 53.7 69.1 4.6 6.0 4.8 283.7 282.2 0.00 0.0000000 85.7
2020-08-01 00:35:00 68.8 59.2 54.0 68.8 4.6 6.3 5.0 271.3 277.9 0.00 0.0000000 85.6
2020-08-01 00:40:00 68.7 60.2 54.4 68.7 4.6 5.6 4.8 306.7 295.9 0.00 0.0000000 85.5
2020-08-01 00:45:00 68.5 61.4 54.7 68.5 4.6 5.6 4.4 307.9 317.0 0.00 0.0000000 85.4
2020-08-01 00:50:00 68.8 60.1 54.4 68.8 4.6 4.7 3.6 2.3 321.9 0.00 0.0000000 85.2
2020-08-01 00:55:00 68.3 65.7 56.4 68.3 7.1 7.6 4.6 75.0 59.7 0.00 0.0000000 85.1
2020-08-01 01:00:00 67.7 67.4 56.5 67.7 7.2 8.8 7.3 65.9 61.1 0.00 0.0000000 85.0
2020-08-01 01:05:00 68.0 65.7 56.1 68.0 2.8 7.4 5.2 51.4 51.7 0.00 0.0000000 84.9
2020-08-01 01:10:00 68.2 64.4 55.7 68.2 7.2 8.5 5.2 71.0 57.7 0.00 0.0000000 84.8
2020-08-01 01:15:00 68.2 63.8 55.5 68.2 3.0 7.2 4.4 38.6 47.8 0.00 0.0000000 84.7
2020-08-01 01:20:00 68.0 66.3 56.3 68.0 5.3 6.7 4.8 79.5 62.8 0.00 0.0000000 84.6
2020-08-01 01:25:00 67.3 69.0 56.8 67.3 4.2 6.2 4.4 75.9 84.1 0.00 0.0000000 84.5
2020-08-01 01:30:00 67.2 69.4 56.8 67.2 2.4 4.9 2.9 92.4 74.4 0.00 0.0000000 84.4
2020-08-01 01:35:00 66.9 70.1 56.8 66.9 2.8 2.8 2.4 118.5 111.8 0.00 0.0000000 84.3
2020-08-01 01:40:00 66.6 70.8 56.8 66.6 2.4 3.5 2.8 120.8 110.1 0.00 0.0000000 84.1
2020-08-01 01:45:00 66.6 70.5 56.7 66.6 2.4 4.0 2.7 193.4 155.5 0.00 0.0000000 84.0
2020-08-01 01:50:00 66.3 71.5 56.8 66.3 4.0 4.4 3.6 167.0 184.7 0.00 0.0000000 83.9
2020-08-01 01:55:00 65.8 73.2 57.0 65.8 3.0 4.7 3.9 151.6 158.8 0.00 0.0000000 83.8
2020-08-01 02:00:00 65.6 74.3 57.2 65.6 3.0 3.8 3.2 163.1 153.2 0.00 0.0000000 83.7
2020-08-01 02:05:00 65.5 74.2 57.1 65.5 4.4 4.7 4.0 168.1 157.0 0.00 0.0000000 83.6
2020-08-01 02:10:00 65.2 73.4 56.4 65.2 3.5 4.2 3.1 189.3 172.3 0.00 0.0000000 83.4
2020-08-01 02:15:00 65.2 72.2 56.0 65.2 4.0 4.2 3.4 223.7 231.1 0.00 0.0000000 83.3
2020-08-01 02:20:00 64.5 72.8 55.6 64.5 4.2 4.4 4.0 260.3 245.2 0.00 0.0000000 83.2
2020-08-01 02:25:00 64.1 73.8 55.5 64.1 3.5 4.4 3.7 198.8 244.8 0.00 0.0000000 83.1
2020-08-01 02:30:00 64.4 72.3 55.3 64.4 1.7 3.3 2.1 263.6 206.7 0.00 0.0000000 83.0
2020-08-01 02:35:00 64.4 71.3 55.0 64.4 1.3 2.2 0.9 133.6 252.5 0.00 0.0000000 82.9
2020-08-01 02:40:00 64.2 73.3 55.5 64.2 3.7 4.0 3.1 92.3 97.2 0.00 0.0000000 82.7
2020-08-01 02:45:00 64.1 73.3 55.4 64.1 0.0 3.3 0.8 307.6 100.6 0.00 0.0000000 82.6
2020-08-01 02:50:00 64.3 72.0 55.1 64.3 2.6 2.6 0.9 290.5 266.8 0.00 0.0000000 82.5
2020-08-01 02:55:00 63.6 74.2 55.2 63.6 4.0 4.9 4.2 318.2 311.5 0.00 0.0000000 82.3
2020-08-01 03:00:00 63.6 73.1 54.8 63.6 4.0 4.2 3.7 310.2 312.0 0.00 0.0000000 82.2
2020-08-01 03:05:00 63.1 74.4 54.8 63.1 3.1 4.6 3.6 277.5 294.6 0.00 0.0000000 82.1
2020-08-01 03:10:00 63.2 74.0 54.8 63.2 3.3 5.1 4.0 291.7 286.8 0.00 0.0000000 82.0
2020-08-01 03:15:00 63.1 74.4 54.8 63.1 2.8 4.7 3.8 297.7 278.2 0.00 0.0000000 81.9
2020-08-01 03:20:00 62.6 75.5 54.8 62.6 0.8 3.1 1.4 214.1 254.3 0.00 0.0000000 81.8
2020-08-01 03:25:00 62.6 75.8 54.8 62.6 0.0 0.8 0.1 146.2 192.2 0.00 0.0000000 81.7
2020-08-01 03:30:00 62.6 75.7 54.8 62.6 0.0 0.0 0.0 241.7 0.0 0.00 0.0000000 81.5
2020-08-01 03:35:00 62.6 75.6 54.8 62.6 1.9 1.9 0.3 314.1 317.3 0.00 0.0000000 81.4
2020-08-01 03:40:00 62.7 75.5 54.9 62.7 4.0 4.4 3.2 298.7 314.0 0.00 0.0000000 81.3
2020-08-01 03:45:00 62.5 76.3 54.9 62.5 4.4 4.7 4.4 306.1 306.4 0.00 0.0000000 81.2
2020-08-01 03:50:00 62.4 76.6 54.9 62.4 3.3 4.4 3.9 287.0 300.2 0.00 0.0000000 81.1
2020-08-01 03:55:00 62.5 75.9 54.8 62.5 2.4 3.8 3.1 274.8 280.5 0.00 0.0000000 81.0
2020-08-01 04:00:00 62.0 76.4 54.5 62.0 1.2 2.4 1.6 190.1 226.9 0.00 0.0000000 80.9
2020-08-01 04:05:00 61.8 76.9 54.4 61.8 1.0 1.7 0.9 296.3 219.1 0.00 0.0000000 80.7
2020-08-01 04:10:00 62.2 76.4 54.7 62.2 5.1 5.1 3.5 279.9 293.5 0.00 0.0000000 80.7
2020-08-01 04:15:00 62.5 74.8 54.4 62.5 6.0 6.7 5.8 270.2 275.3 0.00 0.0000000 80.5
2020-08-01 04:20:00 62.6 75.5 54.8 62.6 5.5 7.1 6.0 283.2 263.1 0.00 0.0000000 80.5
2020-08-01 04:25:00 62.9 75.9 55.1 62.9 5.5 6.2 5.1 271.7 266.2 0.00 0.0000000 80.3
2020-08-01 04:30:00 63.1 75.7 55.3 63.1 4.2 5.8 4.7 257.1 270.8 0.00 0.0000000 80.2
2020-08-01 04:35:00 63.0 76.1 55.3 63.0 4.2 5.3 4.2 271.4 262.3 0.00 0.0000000 80.1
2020-08-01 04:40:00 63.1 76.1 55.5 63.1 5.5 6.0 5.1 262.6 254.3 0.00 0.0000000 80.0
2020-08-01 04:45:00 62.6 77.5 55.5 62.6 5.1 5.8 4.9 274.6 261.2 0.00 0.0000000 79.9
2020-08-01 04:50:00 62.2 78.6 55.5 62.2 5.5 5.5 4.8 271.3 269.8 0.00 0.0000000 79.8
2020-08-01 04:55:00 62.2 79.1 55.7 62.2 5.8 6.0 5.2 259.7 269.3 0.00 0.0000000 79.8
2020-08-01 05:00:00 62.2 79.4 55.7 62.2 5.5 8.0 5.9 267.2 265.8 0.00 0.0000000 79.6
2020-08-01 05:05:00 62.4 79.1 55.8 62.4 6.5 8.0 6.4 278.7 273.6 0.00 0.0000000 79.5
2020-08-01 05:10:00 63.0 77.8 56.0 63.0 5.8 6.9 5.8 298.2 296.9 0.00 0.0000000 79.4
2020-08-01 05:15:00 62.6 78.2 55.7 62.6 4.0 6.0 4.8 271.0 283.6 0.00 0.0000000 79.4
2020-08-01 05:20:00 62.2 79.6 55.9 62.2 3.0 4.4 3.7 266.3 273.3 0.00 0.0000000 79.3
2020-08-01 05:25:00 62.1 80.2 55.9 62.1 3.7 3.8 3.1 258.5 258.9 0.00 0.0000000 79.2
2020-08-01 05:30:00 62.2 79.7 55.9 62.2 4.4 4.6 3.5 258.6 254.2 0.00 0.0000000 79.1
2020-08-01 05:35:00 62.2 79.1 55.7 62.2 4.4 5.1 4.5 270.1 256.7 0.00 0.0000000 79.0
2020-08-01 05:40:00 62.1 79.6 55.7 62.1 4.7 5.5 4.5 264.9 258.3 0.00 0.0000000 78.9
2020-08-01 05:45:00 62.2 79.7 55.9 62.2 4.2 5.6 4.8 266.0 262.8 0.00 0.0000000 78.8
2020-08-01 05:50:00 62.1 80.2 55.9 62.1 4.2 5.3 4.4 276.5 269.5 0.00 0.0000000 78.7
2020-08-01 05:55:00 62.0 80.7 56.0 62.0 4.2 5.1 4.6 250.0 267.2 0.00 0.0000000 78.6
2020-08-01 06:00:00 61.8 81.4 56.0 61.8 4.2 4.7 4.1 269.3 269.0 0.00 0.0000000 78.5
2020-08-01 06:05:00 61.8 81.7 56.2 61.8 3.7 5.1 4.0 241.2 257.2 0.00 0.0002858 78.4
2020-08-01 06:10:00 62.1 81.0 56.2 62.1 3.7 5.5 4.0 256.7 255.4 0.00 0.0013792 78.4
2020-08-01 06:15:00 62.5 80.5 56.5 62.5 4.9 5.3 4.7 262.7 255.9 0.00 0.0060459 78.3
2020-08-01 06:20:00 62.5 80.3 56.4 62.5 3.8 4.7 3.6 253.3 267.6 0.00 0.0101319 78.2
2020-08-01 06:25:00 62.3 80.7 56.3 62.3 3.1 4.4 3.7 275.2 262.6 0.00 0.0141180 78.1
2020-08-01 06:30:00 62.5 80.2 56.4 62.5 3.7 3.7 3.1 268.3 260.4 0.00 0.0176717 78.0
2020-08-01 06:35:00 62.9 79.6 56.5 62.9 3.3 4.6 3.5 253.3 260.4 0.00 0.0216155 78.0
2020-08-01 06:40:00 63.2 78.9 56.5 63.2 2.8 3.3 2.6 263.5 269.4 0.00 0.0258100 77.9
2020-08-01 06:45:00 63.6 78.4 56.8 63.6 2.1 3.7 2.2 291.6 260.4 0.00 0.0300589 77.9
2020-08-01 06:50:00 64.3 76.9 56.9 64.3 0.0 1.9 0.9 289.9 255.6 0.00 0.0341733 77.8
2020-08-01 06:55:00 64.9 75.6 57.0 64.9 2.4 2.6 1.7 245.1 249.7 0.00 0.0384315 77.8
2020-08-01 07:00:00 65.4 74.3 57.0 65.4 4.6 4.6 3.0 246.0 235.5 0.00 0.0429104 77.8
2020-08-01 07:05:00 65.7 73.7 57.0 65.7 5.1 5.3 4.0 252.2 245.2 0.00 0.0473659 77.8
2020-08-01 07:10:00 65.8 72.9 56.9 65.8 4.4 6.0 4.9 265.3 246.5 0.00 0.0520128 77.9
2020-08-01 07:15:00 66.3 72.6 57.2 66.3 3.3 5.3 4.5 289.2 257.8 0.00 0.0565856 77.9
2020-08-01 07:20:00 66.8 70.0 56.7 66.8 3.1 5.3 4.1 261.9 266.0 0.00 0.0611452 78.0
2020-08-01 07:25:00 67.4 68.5 56.7 67.4 3.5 3.8 2.9 259.4 278.9 0.00 0.0659215 78.0
2020-08-01 07:30:00 68.1 66.2 56.4 68.1 4.4 4.6 3.2 305.2 285.6 0.00 0.0707340 78.1
2020-08-01 07:35:00 68.2 66.5 56.7 68.2 3.5 4.7 3.7 291.5 297.9 0.00 0.0752691 78.2
2020-08-01 07:40:00 68.2 66.9 56.8 68.2 6.2 6.5 4.9 277.0 281.6 0.00 0.0800628 78.3
2020-08-01 07:45:00 68.8 66.2 57.1 68.8 5.8 6.5 4.9 299.4 282.8 0.00 0.0849860 78.5
2020-08-01 07:50:00 69.3 62.9 56.2 69.3 6.2 7.8 5.7 313.2 283.7 0.00 0.0900339 78.6
2020-08-01 07:55:00 69.8 62.0 56.2 69.8 6.5 6.5 5.3 296.2 286.2 0.00 0.0947117 78.7
2020-08-01 08:00:00 70.5 61.4 56.6 70.5 4.7 6.9 5.3 296.3 299.2 0.00 0.0999566 78.9
2020-08-01 08:05:00 71.0 59.8 56.3 71.0 6.7 7.6 6.3 289.7 295.8 0.00 0.1053129 79.1
2020-08-01 08:10:00 71.5 59.8 56.8 71.5 4.7 9.0 6.7 299.6 303.1 0.00 0.1106912 79.2
2020-08-01 08:15:00 72.0 58.6 56.7 72.0 8.3 9.2 7.0 298.9 306.3 0.00 0.1159031 79.4
2020-08-01 08:20:00 72.3 56.4 55.9 72.3 6.3 9.7 7.1 302.3 305.0 0.00 0.1208868 79.6
2020-08-01 08:25:00 72.6 55.1 55.6 72.6 7.1 11.0 8.3 282.7 303.7 0.00 0.1263743 79.8
2020-08-01 08:30:00 73.0 53.6 55.1 73.0 6.0 10.5 8.2 298.5 300.1 0.00 0.1315971 80.0
2020-08-01 08:35:00 73.6 52.5 55.2 73.6 9.4 9.6 7.7 293.7 298.2 0.00 0.1365296 80.2
2020-08-01 08:40:00 74.2 51.1 55.0 74.2 8.7 9.7 8.2 310.7 303.5 0.00 0.1416395 80.4
2020-08-01 08:45:00 74.3 50.5 54.7 74.3 9.0 10.3 7.8 314.9 318.4 0.00 0.1470757 80.7
2020-08-01 08:50:00 75.2 49.1 54.8 75.2 8.7 9.2 7.2 291.1 303.3 0.00 0.1523483 80.9
2020-08-01 08:55:00 75.2 48.2 54.2 75.2 4.9 10.6 8.4 303.1 309.9 0.00 0.1573680 81.2
2020-08-01 09:00:00 76.1 44.8 53.1 76.1 8.7 9.6 7.3 301.7 305.8 0.00 0.1623075 81.5
2020-08-01 09:05:00 76.5 43.6 52.7 76.5 8.0 11.0 7.5 326.3 314.8 0.00 0.1673113 81.8
2020-08-01 09:10:00 76.7 44.3 53.3 76.7 9.0 9.4 6.7 302.3 311.4 0.00 0.1723357 82.1
2020-08-01 09:15:00 77.1 43.2 53.0 77.1 9.0 9.2 7.3 312.3 320.1 0.00 0.1775883 82.4
2020-08-01 09:20:00 77.3 42.3 52.6 77.3 6.2 9.7 6.7 341.0 306.5 0.00 0.1824664 82.7
2020-08-01 09:25:00 78.1 41.0 52.5 78.1 5.8 9.2 5.7 325.3 312.2 0.00 0.1871368 83.1
2020-08-01 09:30:00 78.5 40.3 52.4 78.5 6.0 6.7 5.0 0.0 356.2 0.00 0.1915577 83.4
2020-08-01 09:35:00 78.5 40.2 52.3 78.5 6.0 7.6 5.6 306.5 307.4 0.00 0.1963648 83.7
2020-08-01 09:40:00 78.3 38.7 51.1 78.3 4.0 7.6 5.6 303.0 336.3 0.00 0.2010788 84.1
2020-08-01 09:45:00 79.3 38.4 51.8 79.3 4.2 6.7 4.3 3.6 20.9 0.00 0.2060379 84.4
2020-08-01 09:50:00 79.3 38.5 51.9 79.3 6.3 6.3 4.0 27.9 336.1 0.00 0.2101684 84.8
2020-08-01 09:55:00 79.3 38.5 51.9 79.3 1.0 8.3 4.2 22.3 72.2 0.00 0.2154416 85.2
2020-08-01 10:00:00 80.5 36.2 51.2 80.5 1.2 3.5 2.0 10.9 27.6 0.00 0.2198908 85.5
2020-08-01 10:05:00 81.3 35.4 51.4 81.3 3.1 5.1 3.4 329.4 11.7 0.00 0.2243818 85.9
2020-08-01 10:10:00 82.1 33.8 50.8 82.1 7.4 7.4 2.9 1.2 315.5 0.00 0.2276960 86.3
2020-08-01 10:15:00 81.7 32.3 49.2 81.7 4.9 6.9 5.1 5.5 344.6 0.00 0.2320612 86.6
2020-08-01 10:20:00 81.5 32.3 49.1 81.5 3.3 8.5 5.0 14.8 10.8 0.00 0.2362713 87.0
2020-08-01 10:25:00 81.3 32.7 49.2 81.3 2.6 9.0 5.0 44.7 9.0 0.00 0.2404756 87.4
2020-08-01 10:30:00 82.3 31.4 48.9 82.3 4.7 5.6 3.4 306.1 36.5 0.00 0.2445170 87.8
2020-08-01 10:35:00 82.1 31.2 48.7 82.1 4.7 6.2 4.3 0.0 324.8 0.00 0.2482092 88.2
2020-08-01 10:40:00 82.2 31.1 48.6 82.2 3.3 7.4 5.4 75.7 348.8 0.00 0.2518182 88.6
2020-08-01 10:45:00 82.4 31.9 49.6 82.4 3.7 7.4 5.2 341.4 25.4 0.00 0.2556226 89.0
2020-08-01 10:50:00 83.6 29.6 48.6 83.6 6.9 6.9 4.1 47.9 359.3 0.00 0.2586750 89.3
2020-08-01 10:55:00 84.5 29.8 49.5 84.5 5.6 8.8 4.0 313.3 4.2 0.00 0.2617304 89.8
2020-08-01 11:00:00 83.2 30.7 49.2 83.2 4.9 8.8 5.3 33.3 340.8 0.00 0.2648304 90.1
2020-08-01 11:05:00 84.3 29.2 48.7 84.3 8.1 9.9 5.3 15.4 14.1 0.00 0.2685162 90.6
2020-08-01 11:10:00 83.8 29.5 48.7 83.8 3.8 9.2 6.2 336.2 15.5 0.00 0.2711666 90.9
2020-08-01 11:15:00 84.6 29.1 48.9 84.6 3.8 7.4 5.2 27.7 6.3 0.00 0.2742017 91.3
2020-08-01 11:20:00 84.9 29.1 49.2 84.9 5.3 9.9 5.6 7.2 353.7 0.00 0.2767233 91.7
2020-08-01 11:25:00 85.4 26.9 47.6 85.4 7.2 11.3 6.7 47.1 20.2 0.00 0.2796548 92.1
2020-08-01 11:30:00 84.7 27.9 47.9 84.7 3.7 10.6 5.2 331.5 26.3 0.00 0.2820329 92.5
2020-08-01 11:35:00 85.4 28.2 48.8 85.4 3.8 6.9 4.4 331.8 340.7 0.00 0.2843508 92.9
2020-08-01 11:40:00 85.5 28.3 49.0 85.5 3.7 7.2 4.6 21.9 27.6 0.00 0.2863260 93.3
2020-08-01 11:45:00 85.7 26.3 47.2 85.7 7.4 8.0 5.7 320.3 348.0 0.00 0.2880265 93.6
2020-08-01 11:50:00 86.2 27.2 48.5 86.2 3.8 8.0 4.4 36.1 17.3 0.00 0.2897359 94.0
2020-08-01 11:55:00 86.6 25.7 47.3 86.6 7.4 11.3 7.9 34.8 39.8 0.00 0.2920561 94.4
2020-08-01 12:00:00 86.0 27.0 48.2 86.0 7.2 9.9 7.2 1.2 34.7 0.00 0.2934237 94.7
2020-08-01 12:05:00 86.0 26.4 47.5 86.0 4.6 9.0 5.3 18.2 13.6 0.00 0.2945970 95.1
2020-08-01 12:10:00 86.9 25.6 47.5 86.9 6.3 9.0 5.1 36.0 7.1 0.00 0.2962975 95.4
2020-08-01 12:15:00 86.7 26.0 47.8 86.7 2.2 7.8 4.2 350.0 16.5 0.00 0.2975861 95.8
2020-08-01 12:20:00 87.5 26.4 48.8 87.5 2.4 7.2 3.6 12.9 45.3 0.00 0.2983297 96.1
2020-08-01 12:25:00 87.5 26.0 48.4 87.5 6.9 9.0 4.9 349.9 69.7 0.00 0.2997179 96.4
2020-08-01 12:30:00 86.7 26.7 48.4 86.7 1.7 6.9 3.8 329.4 68.2 0.00 0.3001575 96.8
2020-08-01 12:35:00 88.9 24.3 47.8 88.9 6.9 7.1 4.9 0.0 11.3 0.00 0.3013155 97.1
2020-08-01 12:40:00 88.9 25.0 48.6 88.9 5.8 8.0 4.7 50.9 21.7 0.00 0.3020321 97.5
2020-08-01 12:45:00 88.4 25.0 48.2 88.4 11.0 11.0 6.8 62.3 57.1 0.00 0.3029299 97.8
2020-08-01 12:50:00 87.4 25.2 47.4 87.4 5.6 10.8 7.3 49.6 35.7 0.00 0.3031886 98.1
2020-08-01 12:55:00 88.1 25.2 48.1 88.1 8.1 8.8 6.3 53.7 36.2 0.00 0.3036045 98.4
2020-08-01 13:00:00 88.7 25.2 48.6 88.7 9.0 10.1 7.1 10.3 12.1 0.00 0.3038602 98.7
2020-08-01 13:05:00 88.1 26.1 49.0 88.1 6.2 9.2 7.0 304.2 353.0 0.00 0.3043121 99.0
2020-08-01 13:10:00 88.6 24.7 47.9 88.6 8.0 14.0 7.7 18.9 16.2 0.00 0.3037855 99.3
2020-08-01 13:15:00 88.9 24.9 48.4 88.9 6.9 11.2 7.3 11.0 18.4 0.00 0.3034735 99.6
2020-08-01 13:20:00 88.8 24.9 48.3 88.8 9.9 11.2 6.8 32.4 356.8 0.00 0.3021873 99.9
2020-08-01 13:25:00 88.2 25.3 48.2 88.2 14.0 14.0 9.3 41.1 32.9 0.00 0.3025225 100.1
2020-08-01 13:30:00 89.3 24.3 48.1 89.3 5.6 15.5 8.2 69.7 32.1 0.00 0.3029935 100.3
2020-08-01 13:35:00 89.5 25.0 49.0 89.5 8.7 14.2 8.7 66.6 66.5 0.00 0.3007131 100.6
2020-08-01 13:40:00 89.7 24.5 48.7 89.7 8.5 11.0 7.0 46.1 74.6 0.00 0.2989936 100.9
2020-08-01 13:45:00 89.2 25.3 49.0 89.2 5.1 15.8 9.8 98.1 49.5 0.00 0.2989309 101.1
2020-08-01 13:50:00 88.7 24.5 47.8 88.7 7.8 12.6 8.9 40.4 57.4 0.00 0.2972897 101.2
2020-08-01 13:55:00 89.7 23.0 47.0 89.7 4.0 10.3 6.6 106.1 84.4 0.00 0.2941620 101.4
2020-08-01 14:00:00 90.0 23.0 47.2 90.0 14.2 14.2 5.9 301.7 111.2 0.00 0.2904773 101.6
2020-08-01 14:05:00 90.8 20.0 44.2 90.8 7.4 13.0 6.6 48.8 326.3 0.00 0.2907924 101.7
2020-08-01 14:10:00 90.0 24.0 48.3 90.0 9.7 14.0 9.4 45.6 30.0 0.00 0.2885129 101.8
2020-08-01 14:15:00 89.8 22.4 46.3 89.8 6.5 14.7 9.0 58.9 61.3 0.00 0.2863325 101.9
2020-08-01 14:20:00 90.5 18.2 41.5 90.5 7.6 11.9 6.7 338.7 6.8 0.00 0.2861506 102.0
2020-08-01 14:25:00 90.7 19.8 43.8 90.7 9.7 15.6 8.4 9.1 338.1 0.00 0.2845345 102.1
2020-08-01 14:30:00 91.8 19.5 44.4 91.8 8.1 10.5 7.1 23.9 1.9 0.00 0.2812943 102.2
2020-08-01 14:35:00 90.8 20.1 44.3 90.8 4.4 11.5 6.6 12.5 27.0 0.00 0.2796656 102.3
2020-08-01 14:40:00 90.8 23.6 48.6 90.8 10.6 10.6 7.0 66.1 80.0 0.00 0.2758842 102.4
2020-08-01 14:45:00 90.6 25.0 50.0 90.6 10.3 11.7 7.4 73.0 56.3 0.00 0.2760581 102.6
2020-08-01 14:50:00 91.3 23.4 48.8 91.3 15.5 17.2 9.9 52.4 79.4 0.00 0.2750238 102.7
2020-08-01 14:55:00 90.2 24.2 48.7 90.2 6.9 18.7 10.0 26.0 53.8 0.00 0.2726690 102.8
2020-08-01 15:00:00 90.5 24.7 49.5 90.5 8.0 9.4 4.8 39.4 15.7 0.00 0.2743739 102.8
2020-08-01 15:05:00 91.0 23.8 49.0 91.0 9.6 13.9 11.0 84.2 59.7 0.00 0.2672618 102.9
2020-08-01 15:10:00 91.3 23.9 49.3 91.3 5.6 9.2 6.8 43.4 39.1 0.00 0.2599358 103.0
2020-08-01 15:15:00 91.8 23.7 49.5 91.8 0.8 7.6 3.4 348.7 50.3 0.00 0.2537544 103.1
2020-08-01 15:20:00 92.1 23.2 49.2 92.1 9.4 9.4 3.0 55.6 63.8 0.00 0.2510135 103.1
2020-08-01 15:25:00 91.0 23.6 48.7 91.0 6.5 14.6 9.5 59.5 55.9 0.00 0.2459790 103.2
2020-08-01 15:30:00 91.0 22.9 48.0 91.0 7.6 7.6 5.5 51.7 34.3 0.00 0.2433589 103.2
2020-08-01 15:35:00 91.0 23.7 48.8 91.0 7.2 13.5 7.9 53.1 74.6 0.00 0.2412898 103.3
2020-08-01 15:40:00 91.3 23.0 48.4 91.3 13.1 14.6 7.8 51.1 26.7 0.00 0.2370608 103.3
2020-08-01 15:45:00 91.1 22.2 47.2 91.1 5.3 13.3 9.5 62.7 52.2 0.00 0.2327833 103.3
2020-08-01 15:50:00 91.2 21.9 46.9 91.2 9.0 11.0 6.3 112.4 10.5 0.00 0.2285835 103.3
2020-08-01 15:55:00 91.3 22.1 47.3 91.3 6.5 14.6 9.1 18.6 47.9 0.00 0.2251201 103.3
2020-08-01 16:00:00 90.7 22.4 47.2 90.7 7.4 10.6 7.7 349.3 25.8 0.00 0.2210891 103.2
2020-08-01 16:05:00 91.8 22.2 47.7 91.8 11.9 11.9 7.2 97.4 49.4 0.00 0.2173958 103.2
2020-08-01 16:10:00 90.3 22.4 46.8 90.3 13.1 14.2 10.5 124.1 96.7 0.00 0.2112221 103.1
2020-08-01 16:15:00 90.5 22.5 47.1 90.5 6.2 13.3 6.8 101.6 97.3 0.00 0.2061341 103.0
2020-08-01 16:20:00 91.3 21.6 46.6 91.3 11.3 14.2 8.9 47.0 60.4 0.00 0.2014756 102.8
2020-08-01 16:25:00 90.8 21.7 46.4 90.8 5.1 11.2 6.1 38.3 45.5 0.00 0.1975122 102.6
2020-08-01 16:30:00 90.7 21.8 46.4 90.7 8.0 10.3 6.4 30.7 40.2 0.00 0.1929859 102.4
2020-08-01 16:35:00 91.9 20.8 46.2 91.9 6.7 12.4 8.6 46.1 25.2 0.00 0.1882849 102.3
2020-08-01 16:40:00 90.0 21.4 45.4 90.0 7.1 11.5 7.7 9.2 46.8 0.00 0.1281212 102.2
2020-08-01 16:45:00 90.7 21.0 45.4 90.7 5.6 9.4 6.2 22.9 33.9 0.00 0.1790301 102.0
2020-08-01 16:50:00 90.4 21.3 45.5 90.4 8.1 14.9 9.9 77.0 59.1 0.00 0.1738837 101.9
2020-08-01 16:55:00 90.4 21.2 45.4 90.4 5.3 11.2 6.8 2.3 63.2 0.00 0.1678910 101.7
2020-08-01 17:00:00 91.0 20.5 44.9 91.0 5.1 10.5 7.3 98.8 76.0 0.00 0.1640242 101.6
2020-08-01 17:05:00 90.8 20.3 44.7 90.8 8.8 10.6 6.9 65.9 84.6 0.00 0.1588552 101.4
2020-08-01 17:10:00 90.9 19.8 44.0 90.9 12.1 16.4 7.0 56.9 77.1 0.00 0.1539035 101.3
2020-08-01 17:15:00 90.3 20.0 43.8 90.3 11.0 15.3 10.4 79.3 71.9 0.00 0.1489209 101.2
2020-08-01 17:20:00 90.8 19.8 44.0 90.8 6.5 9.7 6.8 85.9 78.9 0.00 0.1438425 101.1
2020-08-01 17:25:00 91.2 19.7 44.1 91.2 7.8 12.2 7.3 34.7 84.2 0.00 0.1386253 101.0
2020-08-01 17:30:00 90.7 19.7 43.8 90.7 10.3 11.7 8.8 31.6 28.9 0.00 0.1337369 100.9
2020-08-01 17:35:00 90.9 19.8 44.0 90.9 7.1 11.3 8.1 25.7 43.5 0.00 0.1285945 100.7
2020-08-01 17:40:00 90.6 20.6 44.8 90.6 7.8 14.0 9.3 96.9 73.2 0.00 0.1245151 100.6
2020-08-01 17:45:00 89.9 20.6 44.2 89.9 6.0 10.3 7.6 62.5 69.5 0.00 0.1196366 100.5
2020-08-01 17:50:00 90.5 20.5 44.6 90.5 9.2 12.8 7.3 47.2 97.0 0.00 0.1141816 100.3
2020-08-01 17:55:00 90.5 20.4 44.5 90.5 6.0 12.2 8.9 74.5 52.0 0.00 0.1081557 100.2
2020-08-01 18:00:00 89.7 20.9 44.5 89.7 7.6 12.2 9.3 90.8 77.6 0.00 0.1043703 100.1
2020-08-01 18:05:00 89.5 21.1 44.5 89.5 7.6 14.9 9.8 102.8 70.4 0.00 0.1024485 99.9
2020-08-01 18:10:00 89.5 21.0 44.5 89.5 6.3 10.6 8.2 26.1 60.8 0.00 0.0890171 99.8
2020-08-01 18:15:00 88.7 21.6 44.5 88.7 7.4 11.9 8.2 67.7 60.3 0.00 0.0485315 99.6
2020-08-01 18:20:00 88.3 21.8 44.3 88.3 6.7 9.2 6.9 82.9 70.9 0.00 0.0465665 99.5
2020-08-01 18:25:00 88.6 21.3 44.1 88.6 8.1 10.1 7.7 53.0 87.3 0.00 0.0689253 99.3
2020-08-01 18:30:00 89.0 21.3 44.4 89.0 8.5 13.3 8.3 84.8 74.9 0.00 0.0806397 99.2
2020-08-01 18:35:00 89.1 21.0 44.1 89.1 4.2 11.3 7.2 70.3 73.3 0.00 0.0784404 99.0
2020-08-01 18:40:00 88.9 20.9 43.7 88.9 5.3 10.1 7.0 66.9 76.4 0.00 0.0795416 98.8
2020-08-01 18:45:00 87.9 20.8 42.9 87.9 11.0 12.8 9.5 52.5 68.8 0.00 0.0334034 98.6
2020-08-01 18:50:00 87.0 21.5 43.0 87.0 8.5 9.9 7.7 89.9 76.5 0.00 0.0210617 98.4
2020-08-01 18:55:00 86.6 21.9 43.1 86.6 10.3 10.3 7.5 57.7 79.4 0.00 0.0175343 98.3
2020-08-01 19:00:00 86.5 21.9 43.0 86.5 7.1 9.9 8.1 62.4 67.9 0.00 0.0137512 98.1
2020-08-01 19:05:00 86.2 22.0 42.9 86.2 3.8 9.4 7.0 98.6 66.8 0.00 0.0103626 97.9
2020-08-01 19:10:00 85.9 22.3 43.0 85.9 5.6 9.0 6.8 71.4 73.1 0.00 0.0081757 97.8
2020-08-01 19:15:00 85.7 22.6 43.1 85.7 6.0 7.8 6.5 57.3 68.4 0.00 0.0075324 97.6
2020-08-01 19:20:00 85.4 22.8 43.2 85.4 5.5 8.8 6.4 60.9 68.7 0.00 0.0068002 97.4
2020-08-01 19:25:00 85.1 23.3 43.4 85.1 4.9 8.0 5.9 71.2 68.3 0.00 0.0053853 97.2
2020-08-01 19:30:00 84.7 23.5 43.4 84.7 5.5 6.7 4.9 81.6 77.3 0.00 0.0039898 97.0
2020-08-01 19:35:00 84.3 24.1 43.7 84.3 3.8 6.0 4.9 83.0 86.7 0.00 0.0032223 96.8
2020-08-01 19:40:00 83.9 24.7 44.0 83.9 4.4 6.0 4.7 85.3 84.6 0.00 0.0028407 96.6
2020-08-01 19:45:00 83.5 25.2 44.1 83.5 3.7 5.1 4.1 85.9 76.2 0.00 0.0022265 96.4
2020-08-01 19:50:00 83.1 25.6 44.3 83.1 4.9 5.3 4.4 67.5 68.0 0.00 0.0027891 96.2
2020-08-01 19:55:00 82.8 26.0 44.4 82.8 3.7 4.9 4.3 65.7 71.4 0.00 0.0002514 96.0
2020-08-01 20:00:00 82.5 26.2 44.3 82.5 4.9 6.0 4.8 69.2 75.1 0.00 0.0000000 95.8
2020-08-01 20:05:00 82.3 26.4 44.4 82.3 3.1 6.2 4.6 77.4 76.8 0.00 0.0000000 95.6
2020-08-01 20:10:00 81.9 26.8 44.5 81.9 4.6 5.8 4.6 99.4 75.7 0.00 0.0000000 95.5
2020-08-01 20:15:00 81.8 27.4 44.9 81.8 3.5 5.5 4.2 82.5 79.0 0.00 0.0000000 95.2
2020-08-01 20:20:00 81.4 28.2 45.3 81.4 4.6 5.5 4.1 77.7 82.9 0.00 0.0000000 95.1
2020-08-01 20:25:00 81.4 28.9 45.9 81.4 5.8 6.2 4.8 96.3 84.4 0.00 0.0000000 94.9
2020-08-01 20:30:00 80.9 29.6 46.2 80.9 3.3 6.2 4.6 78.2 85.5 0.00 0.0000000 94.7
2020-08-01 20:35:00 80.4 30.6 46.7 80.4 3.8 5.3 4.1 84.8 89.5 0.00 0.0000000 94.5
2020-08-01 20:40:00 80.0 31.4 47.0 80.0 3.7 4.7 4.0 118.6 91.3 0.00 0.0000000 94.3
2020-08-01 20:45:00 79.4 32.2 47.2 79.4 3.8 5.1 4.0 92.9 89.8 0.00 0.0000000 94.2
2020-08-01 20:50:00 79.1 32.5 47.1 79.1 4.9 5.5 4.5 79.4 83.1 0.00 0.0000000 94.0
2020-08-01 20:55:00 79.1 32.8 47.3 79.1 4.2 6.0 4.8 89.1 86.2 0.00 0.0000000 93.8
2020-08-01 21:00:00 78.8 33.2 47.4 78.8 3.5 4.6 3.9 81.5 97.5 0.00 0.0000000 93.6
2020-08-01 21:05:00 78.5 33.6 47.4 78.5 4.2 4.7 3.6 107.5 100.9 0.00 0.0000000 93.4
2020-08-01 21:10:00 78.4 33.6 47.3 78.4 4.6 5.1 4.2 104.9 94.5 0.00 0.0000000 93.3
2020-08-01 21:15:00 78.3 33.4 47.2 78.3 4.7 5.3 4.6 87.6 93.5 0.00 0.0000000 93.1
2020-08-01 21:20:00 78.2 33.2 46.9 78.2 6.0 6.3 5.1 87.3 89.2 0.00 0.0000000 92.9
2020-08-01 21:25:00 78.3 33.2 47.0 78.3 5.8 6.7 4.8 96.4 97.3 0.00 0.0000000 92.8
2020-08-01 21:30:00 78.6 33.1 47.2 78.6 5.1 8.3 6.2 115.5 106.0 0.00 0.0000000 92.6
2020-08-01 21:35:00 78.5 33.2 47.1 78.5 4.7 7.8 5.5 115.1 108.8 0.00 0.0000000 92.5
2020-08-01 21:40:00 78.5 33.4 47.3 78.5 4.4 6.2 4.7 116.3 113.1 0.00 0.0000000 92.3
2020-08-01 21:45:00 78.4 33.6 47.5 78.4 5.8 6.2 4.7 103.9 105.5 0.00 0.0000000 92.2
2020-08-01 21:50:00 78.0 34.5 47.7 78.0 5.5 5.8 5.0 108.5 105.2 0.00 0.0000000 92.0
2020-08-01 21:55:00 77.6 35.1 47.9 77.6 3.3 7.1 4.3 77.2 106.9 0.00 0.0000000 91.8
2020-08-01 22:00:00 77.5 35.3 47.9 77.5 3.0 5.5 3.9 109.0 106.3 0.00 0.0000000 91.7
2020-08-01 22:05:00 77.4 35.2 47.8 77.4 3.0 4.9 3.5 112.5 115.0 0.00 0.0000000 91.6
2020-08-01 22:10:00 77.6 35.1 47.9 77.6 4.2 4.4 3.7 127.2 126.2 0.00 0.0000000 91.4
2020-08-01 22:15:00 77.5 35.5 48.1 77.5 2.6 4.2 3.3 98.3 119.3 0.00 0.0000000 91.3
2020-08-01 22:20:00 77.2 36.3 48.4 77.2 2.8 3.7 3.0 103.1 99.2 0.00 0.0000000 91.1
2020-08-01 22:25:00 76.7 36.6 48.2 76.7 2.4 4.0 3.0 132.9 106.8 0.00 0.0000000 91.0
2020-08-01 22:30:00 76.3 37.9 48.7 76.3 2.8 3.8 2.9 138.2 138.5 0.00 0.0000000 90.9
2020-08-01 22:35:00 76.0 38.1 48.7 76.0 3.3 4.0 3.1 111.7 127.0 0.00 0.0000000 90.7
2020-08-01 22:40:00 76.2 38.5 49.1 76.2 2.4 4.0 3.0 128.6 138.5 0.00 0.0000000 90.6
2020-08-01 22:45:00 75.8 39.5 49.4 75.8 1.9 2.8 2.1 148.1 138.3 0.00 0.0000000 90.5
2020-08-01 22:50:00 75.5 40.1 49.6 75.5 1.9 2.4 2.2 111.0 138.9 0.00 0.0000000 90.4
2020-08-01 22:55:00 75.1 40.8 49.6 75.1 2.6 3.5 2.8 83.5 98.4 0.00 0.0000000 90.2
2020-08-01 23:00:00 74.7 41.7 49.9 74.7 2.6 3.7 3.1 78.4 72.5 0.00 0.0000000 90.1
2020-08-01 23:05:00 74.7 41.4 49.7 74.7 2.6 3.1 2.4 120.8 111.8 0.00 0.0000000 90.0
2020-08-01 23:10:00 74.7 41.1 49.5 74.7 1.9 3.0 2.2 96.2 95.0 0.00 0.0000000 89.9
2020-08-01 23:15:00 74.6 41.2 49.5 74.6 2.2 2.2 2.0 89.7 86.6 0.00 0.0000000 89.8
2020-08-01 23:20:00 74.5 41.2 49.4 74.5 1.3 2.4 1.9 107.0 95.8 0.00 0.0000000 89.6
2020-08-01 23:25:00 74.5 41.8 49.8 74.5 1.2 1.3 0.5 129.2 130.8 0.00 0.0000000 89.5
2020-08-01 23:30:00 74.2 42.1 49.7 74.2 1.5 1.9 1.5 97.5 117.7 0.00 0.0000000 89.4
2020-08-01 23:35:00 74.3 42.2 49.8 74.3 1.5 2.2 1.8 110.2 95.5 0.00 0.0000000 89.2
2020-08-01 23:40:00 74.3 42.4 50.0 74.3 2.1 2.2 1.7 65.9 79.7 0.00 0.0000000 89.1
2020-08-01 23:45:00 74.3 42.6 50.1 74.3 1.3 2.2 1.6 107.7 85.0 0.00 0.0000000 89.0
2020-08-01 23:50:00 74.3 42.6 50.1 74.3 0.0 1.3 0.3 78.2 114.8 0.00 0.0000000 88.9
2020-08-01 23:55:00 74.3 42.4 50.0 74.3 0.0 0.0 0.0 80.1 0.0 0.00 0.0000000 88.8
2020-08-02 00:00:00 74.3 41.4 49.3 74.3 0.0 0.8 0.0 82.2 90.6 0.00 0.0000000 88.7

Data is courtesy of the NM Climate Center. DO NOT USE IN LEGAL PROCEEDINGS.